Time;durP1;ratioP1;P1;durP2;ratioP2;P2;SDS_P1;SDS_P2;PMS_P1;PMS_P2;Temp;Humidity;BMP_temperature;BMP_pressure;BME280_temperature;BME280_humidity;BME280_pressure;Samples;Min_cycle;Max_cycle;Signal;HPM_P1;HPM_P2
2022/03/18 00:00:24;;;;;;;3.35;2.33;;;;;;;0.93;86.01;96206.34;5091232;28;20697;-81
2022/03/18 00:02:53;;;;;;;4.05;2.53;;;;;;;0.94;85.93;96215.97;5085083;28;20645;-81
2022/03/18 00:05:21;;;;;;;3.42;2.78;;;;;;;0.95;85.99;96213.06;5089621;28;20203;-83
2022/03/18 00:07:49;;;;;;;9.38;5.03;;;;;;;0.95;86.18;96210.41;5073036;28;20204;-82
2022/03/18 00:10:17;;;;;;;6.85;3.28;;;;;;;0.94;86.17;96210.63;5086801;28;20673;-81
2022/03/18 00:12:45;;;;;;;6.32;3.60;;;;;;;0.98;85.85;96214.44;5073760;28;20272;-81
2022/03/18 00:15:14;;;;;;;3.58;2.08;;;;;;;0.87;85.52;96217.91;5087211;28;20282;-80
2022/03/18 00:17:43;;;;;;;4.03;2.58;;;;;;;0.86;86.17;96218.94;5086400;28;20218;-82
2022/03/18 00:20:11;;;;;;;7.28;3.97;;;;;;;0.81;86.53;96218.81;5068387;28;20202;-79
2022/03/18 00:22:39;;;;;;;2.97;2.33;;;;;;;0.82;86.31;96220.47;5080898;28;20210;-82
2022/03/18 00:25:08;;;;;;;5.07;3.45;;;;;;;0.75;85.88;96222.38;5082229;28;20210;-83
2022/03/18 00:27:36;;;;;;;5.57;3.05;;;;;;;0.77;85.63;96230.97;5082054;28;20361;-82
2022/03/18 00:30:04;;;;;;;6.18;3.92;;;;;;;0.76;85.69;96227.50;5087032;28;20219;-81
2022/03/18 00:32:32;;;;;;;5.18;3.45;;;;;;;0.77;85.36;96233.66;5075963;28;20282;-85
2022/03/18 00:35:00;;;;;;;8.20;4.65;;;;;;;0.85;85.55;96228.78;5082528;28;20284;-85
2022/03/18 00:37:27;;;;;;;4.63;2.78;;;;;;;0.78;85.12;96237.94;5081639;28;20205;-86
2022/03/18 00:39:54;;;;;;;7.22;3.88;;;;;;;0.75;85.10;96235.72;5086025;28;20203;-76
2022/03/18 00:42:21;;;;;;;10.38;4.50;;;;;;;0.79;84.88;96228.91;5074204;28;20219;-88
2022/03/18 00:44:48;;;;;;;11.00;5.05;;;;;;;0.81;85.50;96232.16;5083394;28;20194;-85
2022/03/18 00:52:53;;;;;;;9.68;4.72;;;;;;;0.73;85.22;96243.94;5072764;28;20663;-84
2022/03/18 00:55:20;;;;;;;4.90;3.10;;;;;;;0.66;85.02;96244.06;5081384;28;20231;-83
2022/03/18 00:57:47;;;;;;;3.60;2.92;;;;;;;0.77;85.35;96244.31;5084228;28;20214;-83
2022/03/18 01:00:15;;;;;;;8.45;4.15;;;;;;;0.71;85.01;96251.34;5061298;28;20248;-80
2022/03/18 01:02:42;;;;;;;8.85;4.35;;;;;;;0.79;85.39;96255.56;5083068;28;20206;-81
2022/03/18 01:05:10;;;;;;;6.75;4.45;;;;;;;0.76;85.58;96258.69;5080868;28;20685;-79
2022/03/18 01:07:37;;;;;;;8.35;4.43;;;;;;;0.83;85.25;96259.41;5083584;28;20346;-80
2022/03/18 01:10:05;;;;;;;10.02;4.80;;;;;;;0.75;85.22;96257.88;5087181;28;20207;-81
2022/03/18 01:12:32;;;;;;;6.57;2.97;;;;;;;0.76;84.88;96256.84;5074089;28;20203;-78
2022/03/18 01:14:59;;;;;;;7.28;4.13;;;;;;;0.78;84.90;96256.63;5087099;28;20234;-77
2022/03/18 01:17:26;;;;;;;7.10;4.30;;;;;;;0.77;84.83;96254.97;5083833;28;20234;-80
2022/03/18 01:19:53;;;;;;;6.50;2.85;;;;;;;0.81;84.78;96256.97;5079443;28;20210;-78
2022/03/18 01:22:21;;;;;;;5.53;3.38;;;;;;;0.75;85.12;96267.72;5083404;28;20210;-84
2022/03/18 01:24:48;;;;;;;8.18;4.47;;;;;;;0.73;84.26;96256.47;5076686;28;20194;-78
2022/03/18 01:27:15;;;;;;;7.97;3.90;;;;;;;0.61;84.58;96257.22;5084770;28;20199;-82
2022/03/18 01:29:42;;;;;;;4.80;3.45;;;;;;;0.62;85.03;96252.72;5078804;28;20279;-81
2022/03/18 01:32:09;;;;;;;3.72;2.85;;;;;;;0.56;84.51;96238.41;5095868;28;20199;-75
2022/03/18 01:34:36;;;;;;;6.90;4.47;;;;;;;0.65;84.43;96257.59;5079690;28;20237;-79
2022/03/18 01:37:03;;;;;;;6.05;3.28;;;;;;;0.68;84.37;96252.59;5083056;28;20210;-77
2022/03/18 01:39:32;;;;;;;5.43;3.90;;;;;;;0.65;84.61;96249.59;5088138;28;20206;-80
2022/03/18 01:41:58;;;;;;;9.57;4.50;;;;;;;0.70;84.89;96249.72;5072759;28;20313;-84
2022/03/18 01:44:26;;;;;;;7.15;3.85;;;;;;;0.73;84.05;96246.59;5087637;28;20203;-81
2022/03/18 01:46:52;;;;;;;9.45;5.28;;;;;;;0.78;84.31;96252.09;5071965;28;20717;-80
2022/03/18 01:49:19;;;;;;;7.50;4.85;;;;;;;0.80;83.71;96254.53;5086901;28;20195;-81
2022/03/18 01:51:47;;;;;;;3.72;2.65;;;;;;;0.74;83.36;96260.75;5074066;28;20187;-85
2022/03/18 01:57:01;;;;;;;6.53;3.65;;;;;;;0.75;83.38;96251.72;5080572;28;20210;-82
2022/03/18 01:59:27;;;;;;;9.73;4.82;;;;;;;0.68;82.92;96249.94;5096811;28;20208;-80
2022/03/18 02:01:54;;;;;;;10.35;4.45;;;;;;;0.65;82.60;96257.59;5080334;28;20237;-84
2022/03/18 02:04:22;;;;;;;8.23;4.22;;;;;;;0.58;83.08;96262.19;5084796;28;20231;-84
2022/03/18 02:06:49;;;;;;;4.55;3.00;;;;;;;0.62;83.17;96264.19;5076872;28;20198;-81
2022/03/18 02:09:16;;;;;;;6.05;3.63;;;;;;;0.55;83.76;96263.44;5086312;28;20290;-81
2022/03/18 02:11:44;;;;;;;7.28;4.20;;;;;;;0.59;84.80;96272.63;5086348;28;20207;-85
2022/03/18 02:14:13;;;;;;;7.85;4.13;;;;;;;0.56;85.17;96269.59;5085130;28;20233;-80
2022/03/18 02:16:40;;;;;;;6.22;3.55;;;;;;;0.42;84.57;96268.94;5080943;28;20198;-79
2022/03/18 02:19:07;;;;;;;10.00;5.00;;;;;;;0.33;84.49;96259.63;5094913;28;20305;-81
2022/03/18 02:21:39;;;;;;;11.93;4.13;;;;;;;0.36;84.88;96264.53;5079354;28;20614;-77
2022/03/18 02:24:07;;;;;;;12.65;4.43;;;;;;;0.30;84.55;96260.06;5081343;28;20786;-80
2022/03/18 02:26:36;;;;;;;5.85;3.72;;;;;;;0.30;84.78;96262.72;5093142;28;20733;-80
2022/03/18 02:29:04;;;;;;;8.63;4.50;;;;;;;0.33;85.29;96264.97;5079755;28;20219;-80
2022/03/18 02:31:32;;;;;;;16.98;4.53;;;;;;;0.29;85.13;96261.91;5069249;28;20232;-83
2022/03/18 02:33:59;;;;;;;8.38;4.40;;;;;;;0.23;85.35;96260.16;5080574;28;20210;-82
2022/03/18 02:36:26;;;;;;;9.13;4.53;;;;;;;0.17;85.62;96265.53;5096360;28;20202;-81
2022/03/18 02:38:53;;;;;;;8.98;5.32;;;;;;;0.20;85.85;96275.75;5078188;28;20202;-79
2022/03/18 02:41:21;;;;;;;5.65;4.10;;;;;;;0.19;85.92;96279.47;5077219;28;20226;-81
2022/03/18 02:43:48;;;;;;;10.05;5.60;;;;;;;0.14;85.84;96288.13;5055329;28;20219;-77
2022/03/18 02:46:15;;;;;;;11.25;5.85;;;;;;;0.18;86.19;96288.50;5054162;28;20220;-81
2022/03/18 02:48:42;;;;;;;15.20;7.65;;;;;;;0.12;86.26;96287.53;5080756;28;20234;-81
2022/03/18 02:51:09;;;;;;;12.85;6.25;;;;;;;0.16;86.16;96290.56;5080466;28;20226;-79
2022/03/18 02:53:37;;;;;;;7.80;5.72;;;;;;;0.21;86.05;96288.06;5077317;28;20203;-80
2022/03/18 02:56:04;;;;;;;13.85;7.20;;;;;;;0.19;86.66;96303.44;5082141;28;20241;-80
2022/03/18 02:58:34;;;;;;;9.80;6.50;;;;;;;0.16;86.93;96301.22;5085127;28;20197;-83
2022/03/18 03:01:02;;;;;;;6.93;4.78;;;;;;;0.12;86.53;96300.06;5082228;28;20222;-83
2022/03/18 03:03:29;;;;;;;12.68;7.43;;;;;;;0.09;86.39;96313.81;5077261;28;20581;-82
2022/03/18 03:08:40;;;;;;;10.00;4.95;;;;;;;0.07;85.02;96323.88;5078567;28;20198;-85
2022/03/18 03:11:08;;;;;;;10.88;5.70;;;;;;;-0.01;85.03;96311.66;5081473;28;20272;-83
2022/03/18 03:13:37;;;;;;;6.03;4.28;;;;;;;-0.03;85.15;96313.72;5086631;28;20207;-80
2022/03/18 03:16:04;;;;;;;11.55;7.22;;;;;;;-0.04;85.53;96312.09;5072541;28;20330;-78
2022/03/18 03:18:32;;;;;;;14.43;7.72;;;;;;;-0.04;85.55;96312.91;5084671;28;20219;-80
2022/03/18 03:20:59;;;;;;;14.95;8.43;;;;;;;-0.08;85.21;96318.88;5060031;28;20214;-84
2022/03/18 03:23:26;;;;;;;11.65;6.47;;;;;;;-0.08;85.50;96329.53;5066942;28;20206;-88
2022/03/18 03:25:53;;;;;;;11.88;6.13;;;;;;;-0.11;85.64;96320.13;5079520;28;20206;-82
2022/03/18 03:28:20;;;;;;;10.38;6.10;;;;;;;-0.11;85.96;96316.66;5086664;28;20254;-83
2022/03/18 03:30:49;;;;;;;11.77;6.63;;;;;;;-0.07;86.20;96324.00;5086089;28;20224;-73
2022/03/18 03:33:17;;;;;;;17.20;7.25;;;;;;;-0.12;86.16;96331.81;5088881;28;20201;-83
2022/03/18 03:35:44;;;;;;;7.78;4.60;;;;;;;-0.12;86.73;96331.00;5089129;28;20245;-79
2022/03/18 03:38:13;;;;;;;16.52;6.78;;;;;;;-0.08;86.25;96338.34;5090502;28;20228;-76
2022/03/18 03:40:41;;;;;;;10.55;7.38;;;;;;;-0.20;85.71;96334.75;5087357;28;20255;-85
2022/03/18 03:43:09;;;;;;;18.35;9.55;;;;;;;-0.20;86.35;96336.59;5074927;28;20203;-82
2022/03/18 03:45:37;;;;;;;10.65;6.35;;;;;;;-0.09;85.60;96342.03;5088647;28;20306;-79
2022/03/18 03:48:06;;;;;;;15.43;9.85;;;;;;;-0.18;85.59;96348.69;5086206;28;20210;-83
2022/03/18 03:50:33;;;;;;;10.27;5.95;;;;;;;-0.12;85.44;96342.47;5082406;28;20230;-82
2022/03/18 03:53:00;;;;;;;11.73;6.45;;;;;;;-0.13;85.67;96346.16;5096445;28;20202;-79
2022/03/18 03:55:27;;;;;;;6.25;4.32;;;;;;;-0.16;84.71;96351.94;5078819;28;20230;-79
2022/03/18 03:57:55;;;;;;;10.23;5.32;;;;;;;-0.11;84.88;96346.75;5087199;28;20207;-81
2022/03/18 04:00:21;;;;;;;10.80;5.03;;;;;;;-0.08;84.67;96354.31;5081244;28;20214;-82
2022/03/18 04:02:48;;;;;;;5.13;3.33;;;;;;;-0.09;84.03;96358.00;5085953;28;20229;-79
2022/03/18 04:05:17;;;;;;;11.07;5.22;;;;;;;-0.07;84.17;96358.63;5088666;28;20614;-79
2022/03/18 04:07:45;;;;;;;13.07;6.05;;;;;;;-0.05;83.73;96359.22;5075293;28;20207;-84
2022/03/18 04:10:13;;;;;;;9.85;3.30;;;;;;;-0.14;83.58;96344.56;5093797;28;20234;-79
2022/03/18 04:12:40;;;;;;;13.23;7.80;;;;;;;-0.05;83.42;96375.19;5083643;28;20238;-84
2022/03/18 04:15:09;;;;;;;11.32;6.65;;;;;;;-0.01;84.11;96372.91;5088443;28;20265;-84
2022/03/18 04:17:40;;;;;;;12.98;7.15;;;;;;;-0.01;84.20;96376.41;5061830;28;20306;-79
2022/03/18 04:20:10;;;;;;;8.85;3.53;;;;;;;0.02;84.36;96379.63;5078499;28;20213;-79
2022/03/18 04:22:40;;;;;;;9.38;5.30;;;;;;;0.03;83.77;96370.63;5080992;28;20234;-78
2022/03/18 04:25:08;;;;;;;9.98;4.30;;;;;;;0.09;83.41;96375.91;5066494;28;20263;-78
2022/03/18 04:27:36;;;;;;;11.25;5.68;;;;;;;0.14;83.71;96375.22;5080054;28;20688;-78
2022/03/18 04:30:04;;;;;;;13.18;6.65;;;;;;;0.07;83.31;96387.81;5087668;28;20195;-87
2022/03/18 04:32:31;;;;;;;16.77;8.18;;;;;;;-0.04;83.76;96398.13;5061246;28;20211;-81
2022/03/18 04:34:59;;;;;;;6.22;3.45;;;;;;;-0.09;83.26;96387.31;5083051;28;20238;-78
2022/03/18 04:37:26;;;;;;;6.80;3.85;;;;;;;-0.01;83.03;96396.91;5080604;28;20206;-83
2022/03/18 04:39:55;;;;;;;8.95;5.63;;;;;;;-0.15;82.37;96382.88;5086518;28;20269;-79
2022/03/18 04:42:21;;;;;;;7.63;3.90;;;;;;;-0.09;82.49;96389.97;5077003;28;20656;-79
2022/03/18 04:44:48;;;;;;;7.90;4.32;;;;;;;-0.01;82.44;96379.06;5093420;28;20693;-77
2022/03/18 04:47:15;;;;;;;8.95;5.85;;;;;;;-0.06;81.61;96394.06;5080732;28;20202;-83
2022/03/18 04:49:42;;;;;;;9.13;3.55;;;;;;;-0.18;80.95;96388.63;5085127;28;20230;-87
2022/03/18 04:52:09;;;;;;;6.88;3.80;;;;;;;-0.19;81.15;96400.31;5087377;28;20211;-81
2022/03/18 04:54:36;;;;;;;9.00;4.47;;;;;;;-0.23;81.06;96391.09;5083514;28;20205;-81
2022/03/18 04:57:18;;;;;;;8.63;4.97;;;;;;;-0.07;81.41;96398.56;5079597;28;20234;-87
2022/03/18 04:59:47;;;;;;;3.10;2.13;;;;;;;-0.14;81.48;96400.47;5081537;28;20317;-74
2022/03/18 05:02:14;;;;;;;7.97;3.38;;;;;;;-0.07;80.85;96403.06;5087348;28;20725;-79
2022/03/18 05:04:42;;;;;;;10.15;4.30;;;;;;;-0.08;80.44;96420.91;5086393;28;20256;-80
2022/03/18 05:07:11;;;;;;;14.48;5.63;;;;;;;-0.14;80.48;96412.97;5080418;28;20281;-80
2022/03/18 05:09:39;;;;;;;13.05;3.42;;;;;;;-0.18;80.65;96417.91;5081442;28;20252;-78
2022/03/18 05:12:13;;;;;;;7.25;3.75;;;;;;;-0.11;80.32;96417.84;5066781;28;20569;-81
2022/03/18 05:14:41;;;;;;;10.45;4.68;;;;;;;-0.17;80.21;96419.53;5080658;28;20209;-79
2022/03/18 05:17:09;;;;;;;6.05;3.47;;;;;;;-0.23;79.59;96425.72;5085836;28;20231;-89
2022/03/18 05:19:40;;;;;;;7.25;3.97;;;;;;;-0.24;80.25;96429.41;5088771;28;20206;-82
2022/03/18 05:22:08;;;;;;;2.67;2.25;;;;;;;-0.15;80.39;96422.81;5082227;28;20202;-84
2022/03/18 05:24:35;;;;;;;5.55;3.65;;;;;;;-0.05;80.07;96412.47;5079613;28;20207;-76
2022/03/18 05:27:03;;;;;;;3.13;2.13;;;;;;;0.07;79.96;96414.44;5083429;28;20583;-81
2022/03/18 05:29:31;;;;;;;10.27;5.32;;;;;;;0.06;78.92;96412.81;5085384;28;20198;-83
2022/03/18 05:31:59;;;;;;;8.00;4.35;;;;;;;0.21;79.02;96413.28;5081323;28;20213;-80
2022/03/18 05:34:26;;;;;;;5.88;3.53;;;;;;;0.26;78.43;96413.47;5078294;28;20205;-76
2022/03/18 05:36:53;;;;;;;6.55;3.22;;;;;;;0.23;78.41;96413.91;5083059;28;20308;-79
2022/03/18 05:39:20;;;;;;;6.15;4.00;;;;;;;0.31;78.41;96413.59;5087906;28;20713;-77
2022/03/18 05:41:50;;;;;;;5.55;4.28;;;;;;;0.31;77.96;96410.94;5072195;28;20606;-83
2022/03/18 05:44:18;;;;;;;5.70;3.08;;;;;;;0.20;77.91;96414.31;5085805;28;20215;-82
2022/03/18 05:46:46;;;;;;;6.00;3.72;;;;;;;0.23;77.76;96424.56;5085151;28;20206;-87
2022/03/18 05:49:14;;;;;;;10.02;4.43;;;;;;;0.14;77.98;96428.50;5053255;28;20738;-78
2022/03/18 05:51:41;;;;;;;8.35;4.47;;;;;;;0.19;77.66;96428.69;5065225;28;20195;-80
2022/03/18 05:54:08;;;;;;;5.38;3.33;;;;;;;0.11;77.61;96427.13;5078605;28;20293;-74
2022/03/18 05:56:55;;;;;;;6.10;3.00;;;;;;;0.06;77.06;96432.28;5079627;28;20461;-82
2022/03/18 05:59:23;;;;;;;6.30;3.47;;;;;;;0.24;77.83;96436.84;5070925;28;20194;-79
2022/03/18 06:01:52;;;;;;;4.97;3.47;;;;;;;0.42;76.49;96423.53;5081946;28;20206;-81
2022/03/18 06:04:19;;;;;;;8.02;3.53;;;;;;;1.15;75.51;96434.25;5085263;28;20202;-80
2022/03/18 06:06:47;;;;;;;5.68;3.83;;;;;;;2.29;71.00;96430.59;5060242;28;20306;-83
2022/03/18 06:11:59;;;;;;;5.72;3.40;;;;;;;1.64;70.63;96451.91;5079077;28;20220;-87
2022/03/18 06:14:28;;;;;;;6.80;3.30;;;;;;;0.95;71.24;96465.72;5066548;28;20651;-75
2022/03/18 06:16:58;;;;;;;5.72;3.10;;;;;;;0.73;73.14;96464.47;5065729;28;20230;-84
2022/03/18 06:19:27;;;;;;;7.85;3.55;;;;;;;0.81;72.62;96472.22;5078669;28;20202;-89
2022/03/18 06:21:55;;;;;;;6.30;3.65;;;;;;;0.71;72.02;96460.19;5072265;28;20212;-80
2022/03/18 06:24:22;;;;;;;4.53;3.63;;;;;;;1.14;72.28;96474.50;5058127;28;20207;-79
2022/03/18 06:26:49;;;;;;;5.75;2.60;;;;;;;1.03;70.98;96479.56;5080320;28;20334;-81
2022/03/18 06:29:17;;;;;;;2.35;1.98;;;;;;;0.98;69.79;96478.56;5077510;28;20206;-77
2022/03/18 06:31:44;;;;;;;13.50;6.82;;;;;;;1.22;69.65;96483.06;5079894;28;20209;-84
2022/03/18 06:34:13;;;;;;;11.32;6.07;;;;;;;1.81;67.67;96481.47;5079053;28;20661;-80
2022/03/18 06:36:40;;;;;;;7.47;3.97;;;;;;;3.00;63.62;96479.56;5092785;28;20230;-85
2022/03/18 06:39:09;;;;;;;15.23;5.38;;;;;;;3.31;62.79;96476.47;5079027;28;20219;-81
2022/03/18 06:41:36;;;;;;;8.35;3.05;;;;;;;2.38;63.94;96487.22;5072497;28;20277;-80
2022/03/18 06:44:04;;;;;;;8.90;5.15;;;;;;;2.02;64.00;96504.22;5082081;28;20350;-78
2022/03/18 06:46:31;;;;;;;9.57;5.00;;;;;;;1.70;63.98;96496.41;5082704;28;20203;-78
2022/03/18 06:48:58;;;;;;;4.78;2.47;;;;;;;1.42;65.52;96507.66;5078751;28;20216;-79
2022/03/18 06:51:26;;;;;;;7.18;4.03;;;;;;;1.34;64.96;96501.81;5080995;28;20280;-76
2022/03/18 06:53:53;;;;;;;13.10;2.50;;;;;;;1.21;65.09;96507.28;5071692;28;20650;-79
2022/03/18 06:56:20;;;;;;;5.80;3.78;;;;;;;1.11;65.56;96513.13;5082789;28;20229;-79
2022/03/18 06:58:47;;;;;;;5.40;2.67;;;;;;;1.20;66.49;96522.50;5074190;28;20223;-89
2022/03/18 07:01:14;;;;;;;4.82;2.95;;;;;;;2.53;64.32;96511.66;5082522;28;20627;-81
2022/03/18 07:03:41;;;;;;;6.35;3.55;;;;;;;3.23;62.17;96506.31;5060209;28;20283;-75
2022/03/18 07:06:08;;;;;;;3.83;2.55;;;;;;;3.57;59.73;96513.47;5083520;28;20690;-84
2022/03/18 07:08:37;;;;;;;5.03;3.15;;;;;;;3.95;59.49;96504.03;5082939;28;20201;-83
2022/03/18 07:11:04;;;;;;;4.50;3.00;;;;;;;4.03;58.15;96517.06;5083879;28;20202;-85
2022/03/18 07:13:32;;;;;;;4.20;2.40;;;;;;;3.85;59.37;96515.34;5081398;28;20198;-84
2022/03/18 07:17:54;;;;;;;4.45;3.13;;;;;;;3.37;59.77;96534.47;5083569;28;20253;-79
2022/03/18 07:18:46;;;;;;;5.57;3.15;;;;;;;3.38;60.37;96514.69;5084070;28;20204;-84
2022/03/18 07:21:13;;;;;;;5.90;2.53;;;;;;;3.43;59.35;96528.16;5082284;28;20199;-83
2022/03/18 07:23:41;;;;;;;4.03;2.42;;;;;;;2.34;60.60;96528.81;5094719;28;20572;-84
2022/03/18 07:26:08;;;;;;;4.68;2.72;;;;;;;2.17;63.09;96527.84;5093425;28;20309;-85
2022/03/18 07:28:35;;;;;;;6.85;3.53;;;;;;;2.38;62.50;96527.31;5074979;28;20207;-85
2022/03/18 07:31:02;;;;;;;6.88;2.90;;;;;;;2.59;61.84;96545.53;5062846;28;20208;-86
2022/03/18 07:33:29;;;;;;;3.75;2.08;;;;;;;2.01;61.18;96548.84;5085237;28;20255;-82
2022/03/18 07:35:57;;;;;;;4.13;2.25;;;;;;;1.53;60.81;96545.31;5063315;28;20231;-87
2022/03/18 07:38:24;;;;;;;4.57;2.90;;;;;;;1.49;60.38;96557.50;5065394;28;20219;-83
2022/03/18 07:40:52;;;;;;;4.63;2.58;;;;;;;1.47;61.12;96543.56;5084930;28;20203;-87
2022/03/18 07:43:19;;;;;;;7.45;2.67;;;;;;;1.53;59.91;96566.69;5076328;28;20226;-82
2022/03/18 07:45:46;;;;;;;1.65;1.38;;;;;;;1.52;60.03;96554.38;5082377;28;20209;-85
2022/03/18 07:48:13;;;;;;;4.03;2.47;;;;;;;1.74;59.51;96539.53;5085167;28;20681;-84
2022/03/18 07:50:40;;;;;;;3.60;2.25;;;;;;;2.37;59.00;96549.75;5088206;28;20231;-83
2022/03/18 07:53:09;;;;;;;4.13;2.60;;;;;;;2.50;56.93;96549.56;5087172;28;20293;-85
2022/03/18 07:55:37;;;;;;;2.92;2.22;;;;;;;2.59;57.24;96542.84;5082371;28;20202;-89
2022/03/18 07:58:07;;;;;;;4.53;3.38;;;;;;;2.07;56.53;96555.94;5083172;28;20223;-83
2022/03/18 08:00:33;;;;;;;3.60;2.42;;;;;;;1.93;57.22;96554.47;5088930;28;20218;-79
2022/03/18 08:03:01;;;;;;;3.67;2.40;;;;;;;2.18;57.84;96546.34;5086983;28;20210;-75
2022/03/18 08:05:27;;;;;;;3.80;1.80;;;;;;;2.14;57.09;96554.00;5063096;28;20210;-79
2022/03/18 08:07:54;;;;;;;3.42;2.20;;;;;;;2.52;55.50;96558.16;5088410;28;20198;-79
2022/03/18 08:10:21;;;;;;;9.93;3.15;;;;;;;2.51;55.54;96572.59;5055133;28;20212;-87
2022/03/18 08:12:49;;;;;;;7.10;2.80;;;;;;;2.32;56.22;96557.66;5081334;28;20675;-90
2022/03/18 08:15:19;;;;;;;6.50;2.50;;;;;;;2.10;56.64;96566.19;5081402;28;20696;-87
2022/03/18 08:17:51;;;;;;;6.72;3.33;;;;;;;2.57;56.36;96560.97;5067276;28;20227;-82
2022/03/18 08:20:20;;;;;;;3.88;2.53;;;;;;;3.06;56.71;96550.91;5082553;28;20198;-83
2022/03/18 08:22:48;;;;;;;2.78;2.08;;;;;;;3.11;52.52;96551.84;5067844;28;20706;-85
2022/03/18 08:25:15;;;;;;;5.35;2.80;;;;;;;2.52;54.63;96536.78;5087006;28;20250;-89
2022/03/18 08:27:42;;;;;;;4.97;3.03;;;;;;;3.09;53.97;96542.41;5088076;28;20207;-84
2022/03/18 08:30:11;;;;;;;6.50;2.95;;;;;;;3.07;52.78;96549.88;5083888;28;20197;-83
2022/03/18 08:32:40;;;;;;;3.85;2.38;;;;;;;2.41;54.17;96561.63;5080941;28;20203;-82
2022/03/18 08:35:08;;;;;;;6.90;2.35;;;;;;;2.72;53.42;96548.00;5075567;28;20219;-85
2022/03/18 08:40:20;;;;;;;3.72;2.80;;;;;;;3.71;49.34;96540.81;5053617;28;20207;-82
2022/03/18 08:42:47;;;;;;;3.25;2.17;;;;;;;3.28;50.36;96551.94;5066006;28;20229;-84
2022/03/18 08:45:14;;;;;;;4.75;2.65;;;;;;;3.30;51.04;96539.13;5079628;28;20705;-85
2022/03/18 08:47:43;;;;;;;4.18;2.47;;;;;;;3.56;50.34;96553.88;5066417;28;20210;-88
2022/03/18 08:50:11;;;;;;;4.40;2.40;;;;;;;3.19;50.91;96548.00;5080272;28;20669;-82
2022/03/18 08:52:38;;;;;;;5.95;3.60;;;;;;;2.75;52.79;96557.38;5086883;28;20239;-84
2022/03/18 08:55:07;;;;;;;9.48;4.35;;;;;;;3.07;53.58;96549.88;5087082;28;20598;-87
2022/03/18 08:57:37;;;;;;;8.05;2.65;;;;;;;3.30;50.28;96539.13;5081498;28;20231;-84
2022/03/18 09:00:06;;;;;;;6.15;2.33;;;;;;;2.76;48.15;96551.81;5079226;28;20276;-83
2022/03/18 09:02:34;;;;;;;6.32;3.08;;;;;;;2.68;50.01;96552.16;5085048;28;20225;-82
2022/03/18 09:05:03;;;;;;;5.07;2.15;;;;;;;3.11;51.39;96529.63;5083467;28;20290;-82
2022/03/18 09:07:30;;;;;;;3.75;2.55;;;;;;;3.91;47.62;96527.00;5084915;28;20199;-79
2022/03/18 09:09:57;;;;;;;4.00;2.70;;;;;;;4.47;45.89;96525.34;5089609;28;20225;-81
2022/03/18 09:12:24;;;;;;;3.35;2.55;;;;;;;4.23;47.30;96533.53;5084300;28;20206;-82
2022/03/18 09:14:51;;;;;;;4.57;2.28;;;;;;;3.86;47.39;96533.06;5073288;28;20250;-79
2022/03/18 09:17:18;;;;;;;6.10;3.60;;;;;;;4.22;48.54;96531.91;5082682;28;20226;-87
2022/03/18 09:19:45;;;;;;;4.55;3.28;;;;;;;4.18;47.64;96525.38;5080181;28;20629;-87
2022/03/18 09:22:16;;;;;;;4.07;2.70;;;;;;;3.99;48.33;96531.16;5074385;28;20199;-86
2022/03/18 09:24:44;;;;;;;4.35;2.35;;;;;;;4.50;48.77;96532.94;5084725;28;20199;-85
2022/03/18 09:27:11;;;;;;;3.17;2.30;;;;;;;4.50;47.85;96543.66;5084485;28;20210;-80
2022/03/18 09:29:38;;;;;;;4.90;2.70;;;;;;;4.55;46.71;96533.00;5074929;28;20203;-85
2022/03/18 09:32:06;;;;;;;5.30;2.63;;;;;;;4.40;47.41;96528.19;5073226;28;20198;-85
2022/03/18 09:34:34;;;;;;;6.70;2.85;;;;;;;3.95;48.18;96530.84;5076287;28;20203;-80
2022/03/18 09:37:02;;;;;;;4.53;2.85;;;;;;;4.42;46.29;96526.06;5075564;28;20310;-79
2022/03/18 09:39:30;;;;;;;3.65;2.78;;;;;;;4.20;46.73;96536.69;5073769;28;20210;-87
2022/03/18 09:41:57;;;;;;;4.88;2.78;;;;;;;4.30;46.91;96536.06;5072475;28;20219;-81
2022/03/18 09:44:24;;;;;;;6.38;2.90;;;;;;;3.84;48.35;96537.84;5070641;28;20206;-85
2022/03/18 09:46:52;;;;;;;4.22;3.28;;;;;;;4.17;48.04;96534.47;5072685;28;20207;-85
2022/03/18 09:49:22;;;;;;;7.22;3.72;;;;;;;3.61;47.22;96539.78;5072093;28;20191;-86
2022/03/18 09:51:49;;;;;;;6.57;3.20;;;;;;;3.43;48.28;96536.19;5070728;28;20192;-86
2022/03/18 09:54:16;;;;;;;6.40;2.50;;;;;;;4.28;47.41;96519.38;5081189;28;20672;-79
2022/03/18 09:56:47;;;;;;;5.85;2.75;;;;;;;4.16;46.67;96534.72;5076319;28;20574;-76
2022/03/18 09:59:14;;;;;;;6.00;3.22;;;;;;;4.29;45.03;96532.56;5086295;28;20234;-89
2022/03/18 10:01:41;;;;;;;6.20;3.10;;;;;;;4.47;46.32;96517.31;5087305;28;20670;-75
2022/03/18 10:04:11;;;;;;;5.60;3.28;;;;;;;4.73;45.81;96538.16;5081693;28;20202;-86
2022/03/18 10:06:42;;;;;;;6.20;3.22;;;;;;;4.63;45.48;96521.88;5079497;28;20239;-81
2022/03/18 10:09:09;;;;;;;2.65;2.22;;;;;;;5.16;44.86;96517.88;5081414;28;20664;-84
2022/03/18 10:11:37;;;;;;;5.18;3.05;;;;;;;5.16;44.64;96504.44;5085512;28;20195;-86
2022/03/18 10:14:07;;;;;;;5.28;3.22;;;;;;;5.03;44.44;96520.91;5081794;28;20230;-86
2022/03/18 10:16:36;;;;;;;3.17;2.08;;;;;;;4.53;45.17;96516.31;5078165;28;20217;-86
2022/03/18 10:19:08;;;;;;;6.35;3.38;;;;;;;4.05;45.90;96525.66;5079446;28;20221;-86
2022/03/18 10:21:50;;;;;;;6.15;2.75;;;;;;;4.05;44.57;96520.31;5071587;28;20210;-82
2022/03/18 10:24:19;;;;;;;5.05;3.03;;;;;;;4.36;45.43;96520.88;5072124;28;20669;-84
2022/03/18 10:26:50;;;;;;;6.82;2.38;;;;;;;5.07;43.76;96508.56;5084068;28;20207;-83
2022/03/18 10:29:18;;;;;;;10.55;4.78;;;;;;;4.09;45.79;96526.03;5085534;28;20195;-85
2022/03/18 10:32:00;;;;;;;6.80;3.72;;;;;;;4.25;46.09;96531.41;5080711;28;20674;-85
2022/03/18 10:37:21;;;;;;;7.50;3.13;;;;;;;3.71;47.66;96518.56;5078079;28;20688;-79
2022/03/18 10:39:50;;;;;;;5.85;3.47;;;;;;;3.75;47.85;96535.78;5083863;28;20240;-85
2022/03/18 10:42:18;;;;;;;8.57;2.67;;;;;;;4.36;47.16;96527.06;5069047;28;20214;-85
2022/03/18 10:44:49;;;;;;;4.47;3.08;;;;;;;4.04;47.45;96529.41;5069222;28;20202;-75
2022/03/18 10:47:27;;;;;;;3.72;2.42;;;;;;;3.75;47.78;96535.78;5077187;28;20209;-78
2022/03/18 10:49:55;;;;;;;5.03;2.85;;;;;;;3.25;46.04;96535.53;5080795;28;20265;-84
2022/03/18 10:52:24;;;;;;;4.28;3.05;;;;;;;3.22;47.08;96526.13;5083378;28;20203;-83
2022/03/18 10:54:54;;;;;;;5.80;3.53;;;;;;;3.33;47.49;96527.94;5059132;28;20204;-86
2022/03/18 10:57:20;;;;;;;6.80;2.20;;;;;;;3.68;47.10;96525.22;5075259;28;20605;-83
2022/03/18 10:59:49;;;;;;;3.78;2.13;;;;;;;3.70;46.96;96527.63;5079558;28;20226;-83
2022/03/18 11:02:17;;;;;;;5.20;1.90;;;;;;;3.56;45.04;96517.19;5084946;28;20272;-79
2022/03/18 11:04:44;;;;;;;6.30;3.28;;;;;;;4.09;44.68;96501.88;5084118;28;20229;-82
2022/03/18 11:12:45;;;;;;;1.60;1.30;;;;;;;4.10;43.87;96509.66;5070819;28;20573;-85
2022/03/18 11:15:16;;;;;;;5.15;2.72;;;;;;;3.82;45.68;96507.81;5084723;28;20669;-77
2022/03/18 11:17:44;;;;;;;6.10;3.25;;;;;;;3.81;46.08;96513.41;5083700;28;20207;-81
2022/03/18 11:20:11;;;;;;;3.25;2.22;;;;;;;3.46;44.33;96522.34;5076932;28;20235;-86
2022/03/18 11:22:40;;;;;;;2.22;1.67;;;;;;;3.64;45.10;96517.88;5051198;28;20199;-81
2022/03/18 11:25:10;;;;;;;3.38;2.65;;;;;;;3.92;43.19;96501.81;5077883;28;20226;-82
2022/03/18 11:27:39;;;;;;;6.10;2.40;;;;;;;4.16;43.69;96511.41;5077461;28;20213;-81
2022/03/18 11:30:21;;;;;;;3.47;2.20;;;;;;;4.54;41.65;96499.97;5082821;28;20282;-84
2022/03/18 11:33:18;;;;;;;3.72;2.40;;;;;;;4.58;42.06;96503.00;5086153;28;20214;-83
2022/03/18 11:36:11;;;;;;;4.72;3.03;;;;;;;4.52;42.48;96498.59;5081635;28;20696;-84
2022/03/18 11:39:06;;;;;;;4.75;2.78;;;;;;;4.33;41.78;96489.16;5083814;28;20222;-87
2022/03/18 11:41:56;;;;;;;4.53;2.53;;;;;;;4.72;42.73;96493.56;5060332;28;20229;-84
2022/03/18 11:44:43;;;;;;;5.43;3.70;;;;;;;5.03;41.51;96488.66;5084348;28;20755;-87
2022/03/18 11:47:40;;;;;;;2.70;2.08;;;;;;;4.21;41.73;96492.72;5084912;28;20230;-82
2022/03/18 11:50:43;;;;;;;3.90;2.55;;;;;;;4.15;41.78;96477.56;5069231;28;20728;-82
2022/03/18 11:53:14;;;;;;;5.40;2.60;;;;;;;5.03;41.10;96477.91;5019426;28;20203;-86
2022/03/18 11:55:45;;;;;;;5.70;2.95;;;;;;;5.10;40.40;96476.66;5026727;28;20641;-84
2022/03/18 11:58:33;;;;;;;4.60;2.92;;;;;;;5.39;42.01;96477.34;5035727;28;20263;-80
2022/03/18 12:00:59;;;;;;;4.38;2.65;;;;;;;4.75;42.03;96490.41;5067391;28;20249;-73
2022/03/18 12:03:36;;;;;;;4.15;2.17;;;;;;;4.86;43.83;96488.69;5080072;28;20703;-73
2022/03/18 12:06:04;;;;;;;5.15;3.08;;;;;;;4.34;43.59;96488.09;5083527;28;20198;-81
2022/03/18 12:09:02;;;;;;;5.30;2.65;;;;;;;4.33;43.86;96481.09;5091029;28;20214;-84
2022/03/18 12:11:36;;;;;;;2.30;1.85;;;;;;;4.34;43.33;96486.22;5073031;28;20291;-80